Time;durP1;ratioP1;P1;durP2;ratioP2;P2;SDS_P1;SDS_P2;PMS_P1;PMS_P2;Temp;Humidity;BMP_temperature;BMP_pressure;BME280_temperature;BME280_humidity;BME280_pressure;Samples;Min_cycle;Max_cycle;Signal;HPM_P1;HPM_P2
2023/05/17 00:01:33;;;;;;;7.13;2.73;;;8.30;99.90;7.40;100320;;;;567552;252;24121;-78
2023/05/17 00:04:02;;;;;;;6.67;2.97;;;8.20;99.90;7.40;100325;;;;578883;247;24103;-79
2023/05/17 00:06:30;;;;;;;6.03;3.07;;;8.10;99.90;7.40;100324;;;;559079;252;24142;-77
2023/05/17 00:08:58;;;;;;;12.83;3.70;;;8.20;99.90;7.30;100314;;;;578324;248;24098;-79
2023/05/17 00:11:26;;;;;;;7.20;3.97;;;8.20;99.90;7.30;100325;;;;562475;252;46459;-80
2023/05/17 00:13:54;;;;;;;10.70;3.50;;;8.00;99.90;7.30;100304;;;;578493;247;24113;-79
2023/05/17 00:16:22;;;;;;;8.87;4.43;;;8.10;99.90;7.30;100322;;;;567659;252;24168;-77
2023/05/17 00:18:54;;;;;;;13.50;3.50;;;8.20;99.90;7.40;100320;;;;578908;247;24218;-80
2023/05/17 00:21:19;;;;;;;8.27;3.60;;;8.20;99.90;7.40;100319;;;;567487;252;24135;-80
2023/05/17 00:23:47;;;;;;;4.50;2.50;;;8.20;99.90;7.40;100317;;;;578736;247;24089;-77
2023/05/17 00:26:15;;;;;;;5.07;3.37;;;8.00;99.90;7.40;100313;;;;567439;252;24144;-74
2023/05/17 00:28:43;;;;;;;13.00;3.10;;;8.00;99.90;7.40;100309;;;;578363;247;24116;-74
2023/05/17 00:31:11;;;;;;;12.93;4.63;;;8.50;99.90;7.40;100319;;;;562091;252;35546;-75
2023/05/17 00:33:39;;;;;;;4.57;3.17;;;8.30;99.90;7.40;100313;;;;578354;247;24127;-76
2023/05/17 00:36:06;;;;;;;7.30;3.10;;;8.30;99.90;7.50;100324;;;;567065;252;24161;-74
2023/05/17 00:38:34;;;;;;;7.63;2.90;;;8.30;99.90;7.50;100320;;;;578133;247;24109;-73
2023/05/17 00:41:05;;;;;;;7.70;3.27;;;8.30;99.90;7.50;100311;;;;567141;252;24141;-74
2023/05/17 00:43:33;;;;;;;8.20;2.87;;;8.30;99.90;7.50;100323;;;;578211;247;24099;-73
2023/05/17 00:46:01;;;;;;;12.63;3.37;;;8.60;99.90;7.60;100322;;;;567192;252;24140;-74
2023/05/17 00:48:29;;;;;;;4.57;2.83;;;7.70;99.90;7.60;100330;;;;578674;247;24121;-76
2023/05/17 00:50:56;;;;;;;6.10;3.00;;;8.20;99.90;7.60;100321;;;;559135;252;24155;-78
2023/05/17 00:53:28;;;;;;;3.60;2.97;;;8.40;99.90;7.60;100326;;;;569965;248;24129;-75
2023/05/17 00:55:54;;;;;;;6.93;3.10;;;8.00;99.90;7.60;100322;;;;559091;251;24175;-74
2023/05/17 00:58:21;;;;;;;8.73;3.17;;;8.10;99.90;7.50;100322;;;;578553;246;24095;-74
2023/05/17 01:00:49;;;;;;;8.07;3.73;;;8.40;99.90;7.50;100323;;;;560408;252;24115;-73
2023/05/17 01:03:17;;;;;;;4.67;2.80;;;8.40;99.90;7.50;100326;;;;570807;247;24152;-77
2023/05/17 01:05:45;;;;;;;5.67;3.27;;;8.40;99.90;7.50;100313;;;;568331;252;24171;-75
2023/05/17 01:08:13;;;;;;;6.03;2.77;;;8.40;99.90;7.50;100315;;;;579548;247;24153;-75
2023/05/17 01:10:44;;;;;;;5.90;3.37;;;8.30;99.90;7.50;100315;;;;568188;252;24102;-74
2023/05/17 01:13:26;;;;;;;13.70;3.07;;;9.50;99.90;7.50;100314;;;;569276;248;24114;-79
2023/05/17 01:16:09;;;;;;;5.37;3.47;;;7.80;99.90;7.40;100315;;;;567695;252;24149;-73
2023/05/17 01:18:46;;;;;;;5.33;3.30;;;8.20;99.90;7.40;100309;;;;576182;248;24128;-75
2023/05/17 01:21:29;;;;;;;5.23;2.97;;;8.20;99.90;7.40;100308;;;;558785;252;24228;-74
2023/05/17 01:24:03;;;;;;;5.87;3.00;;;8.20;99.90;7.40;100304;;;;570085;248;24142;-73
2023/05/17 01:26:43;;;;;;;12.27;4.13;;;8.20;99.90;7.40;100304;;;;558539;252;24152;-73
2023/05/17 01:29:09;;;;;;;7.10;3.67;;;8.20;99.90;7.40;100294;;;;569764;248;24111;-75
2023/05/17 01:31:40;;;;;;;5.53;3.53;;;8.20;99.90;7.40;100295;;;;559289;252;24172;-73
2023/05/17 01:34:11;;;;;;;12.73;3.87;;;8.20;99.90;7.30;100292;;;;570087;248;24113;-74
2023/05/17 01:36:36;;;;;;;8.20;3.70;;;8.00;99.90;7.30;100300;;;;558968;252;24124;-72
2023/05/17 01:39:04;;;;;;;4.97;2.53;;;8.20;99.90;7.40;100298;;;;578618;247;24112;-74
2023/05/17 01:41:44;;;;;;;9.87;3.63;;;8.10;99.90;7.30;100296;;;;567469;251;24130;-75
2023/05/17 01:44:33;;;;;;;8.63;3.30;;;8.10;99.90;7.30;100300;;;;578625;247;24143;-74
2023/05/17 01:47:01;;;;;;;13.47;3.77;;;9.00;99.90;7.30;100298;;;;566336;248;24107;-74
2023/05/17 01:49:31;;;;;;;8.73;2.97;;;8.10;99.90;7.30;100300;;;;574117;248;24233;-73
2023/05/17 01:52:08;;;;;;;7.50;3.73;;;8.10;99.90;7.20;100311;;;;578026;248;24118;-73
2023/05/17 01:54:49;;;;;;;13.85;5.53;;;8.10;99.90;7.20;100307;;;;553930;252;35547;-75
2023/05/17 01:57:17;;;;;;;10.73;4.20;;;8.10;99.90;7.20;100313;;;;578600;247;24109;-77
2023/05/17 01:59:50;;;;;;;10.13;3.83;;;7.80;99.90;7.20;100302;;;;559129;252;24172;-79
2023/05/17 02:02:15;;;;;;;8.63;3.70;;;7.70;99.90;7.10;100300;;;;569341;248;24111;-73
2023/05/17 02:04:43;;;;;;;12.17;3.87;;;8.10;99.90;7.10;100311;;;;567141;251;24137;-78
2023/05/17 02:07:11;;;;;;;7.33;3.00;;;7.70;99.90;7.00;100309;;;;578195;247;24149;-75
2023/05/17 02:09:39;;;;;;;7.37;3.63;;;7.90;99.90;7.00;100309;;;;567196;252;24141;-77
2023/05/17 02:12:07;;;;;;;3.67;3.20;;;7.80;99.90;6.90;100297;;;;579875;246;24106;-75
2023/05/17 02:14:35;;;;;;;8.53;3.77;;;7.70;99.90;6.80;100302;;;;562344;252;24158;-73
2023/05/17 02:17:04;;;;;;;12.00;3.73;;;7.60;99.90;6.80;100292;;;;579121;247;24101;-76
2023/05/17 02:19:31;;;;;;;5.60;3.13;;;7.50;99.90;6.80;100304;;;;568093;252;24121;-74
2023/05/17 02:21:59;;;;;;;7.60;3.67;;;7.60;99.90;6.80;100304;;;;570484;248;24189;-75
2023/05/17 02:24:27;;;;;;;7.80;3.63;;;7.60;99.90;6.70;100294;;;;567918;252;24117;-77
2023/05/17 02:26:55;;;;;;;6.23;3.13;;;7.70;99.90;6.70;100294;;;;579167;247;24101;-79
2023/05/17 02:29:23;;;;;;;5.57;3.87;;;7.30;99.90;6.70;100297;;;;567799;252;24122;-80
2023/05/17 02:31:51;;;;;;;10.63;4.90;;;7.90;99.90;6.70;100306;;;;578885;247;24113;-77
2023/05/17 02:34:20;;;;;;;9.97;4.80;;;7.60;99.90;6.70;100302;;;;562462;252;46431;-77
2023/05/17 02:36:48;;;;;;;3.87;3.13;;;7.50;99.90;6.70;100301;;;;578440;247;24186;-78
2023/05/17 02:39:16;;;;;;;9.77;3.90;;;7.80;99.90;6.70;100305;;;;567466;252;24211;-76
2023/05/17 02:41:44;;;;;;;3.13;2.63;;;7.60;99.90;6.70;100304;;;;578494;247;24102;-76
2023/05/17 02:44:12;;;;;;;3.47;3.07;;;7.70;99.90;6.80;100304;;;;567691;252;24194;-74
2023/05/17 02:46:40;;;;;;;7.83;3.40;;;7.80;99.90;6.80;100302;;;;578465;247;24143;-72
2023/05/17 02:49:07;;;;;;;6.80;3.73;;;8.60;99.90;6.80;100307;;;;567037;252;24179;-77
2023/05/17 02:51:35;;;;;;;11.23;4.57;;;7.70;99.90;6.80;100304;;;;573664;247;35453;-78
2023/05/17 02:54:03;;;;;;;7.17;3.57;;;7.60;99.90;6.80;100321;;;;567491;252;24214;-77
2023/05/17 02:56:32;;;;;;;3.37;2.63;;;7.60;99.90;6.90;100315;;;;578652;247;24109;-78
2023/05/17 02:59:00;;;;;;;10.27;3.75;;;7.80;99.90;6.90;100310;;;;562173;252;35534;-77
2023/05/17 03:01:28;;;;;;;5.30;2.67;;;7.70;99.90;6.90;100307;;;;578191;247;24115;-74
2023/05/17 03:03:56;;;;;;;4.47;2.80;;;7.90;99.90;7.00;100316;;;;567137;252;24121;-73
2023/05/17 03:06:24;;;;;;;7.60;2.40;;;7.90;99.90;7.00;100320;;;;578635;248;24167;-73
2023/05/17 03:08:52;;;;;;;11.77;3.07;;;8.00;99.90;7.10;100319;;;;567434;252;24147;-73
2023/05/17 03:11:20;;;;;;;6.27;2.33;;;8.00;99.90;7.20;100315;;;;578629;247;24141;-73
2023/05/17 03:13:50;;;;;;;6.30;2.60;;;8.30;99.90;7.30;100316;;;;567479;251;24139;-73
2023/05/17 03:16:20;;;;;;;6.80;3.07;;;8.20;99.90;7.40;100319;;;;578675;247;24113;-79
2023/05/17 03:18:47;;;;;;;3.87;2.33;;;8.30;99.90;7.50;100325;;;;567448;252;24127;-79
2023/05/17 03:21:15;;;;;;;5.07;2.20;;;8.50;99.90;7.60;100325;;;;578323;248;24126;-73
2023/05/17 03:23:44;;;;;;;5.00;2.63;;;8.40;99.90;7.60;100334;;;;568536;251;24131;-72
2023/05/17 03:26:12;;;;;;;7.97;2.80;;;8.60;99.90;7.70;100343;;;;579412;247;24122;-78
2023/05/17 03:28:39;;;;;;;3.20;2.03;;;8.60;99.90;7.70;100332;;;;567912;252;24148;-79
2023/05/17 03:31:08;;;;;;;5.47;2.50;;;8.50;99.90;7.80;100339;;;;578853;247;24151;-79
2023/05/17 03:33:36;;;;;;;4.27;2.73;;;8.80;99.90;7.80;100345;;;;567663;251;24112;-76
2023/05/17 03:36:07;;;;;;;9.83;2.80;;;8.50;99.90;7.90;100355;;;;579162;247;24114;-77
2023/05/17 03:38:31;;;;;;;2.60;1.90;;;8.60;99.90;7.90;100344;;;;562920;252;24139;-75
2023/05/17 03:41:00;;;;;;;5.63;1.93;;;8.80;99.90;8.10;100334;;;;578995;247;24148;-79
2023/05/17 03:43:28;;;;;;;3.43;1.80;;;9.20;99.90;8.20;100333;;;;567729;252;24111;-79
2023/05/17 03:45:56;;;;;;;5.90;2.27;;;9.40;99.90;8.60;100335;;;;578871;247;24083;-78
2023/05/17 03:48:25;;;;;;;5.80;2.50;;;9.60;99.90;9.10;100340;;;;567726;252;24118;-76
2023/05/17 03:50:52;;;;;;;7.40;2.72;;;10.10;99.90;9.50;100356;;;;573799;247;35374;-77
2023/05/17 03:53:20;;;;;;;12.13;3.03;;;10.20;99.90;9.70;100350;;;;558965;252;24236;-79
2023/05/17 03:55:48;;;;;;;6.13;2.37;;;10.50;99.90;9.80;100354;;;;578643;247;24087;-78
2023/05/17 03:58:16;;;;;;;6.90;2.43;;;10.50;99.90;9.80;100354;;;;558840;252;24203;-74
2023/05/17 04:00:45;;;;;;;7.50;2.50;;;11.30;99.90;9.80;100351;;;;578173;248;24124;-74
2023/05/17 04:03:12;;;;;;;8.00;2.57;;;10.80;99.90;9.80;100367;;;;558753;252;24145;-78
2023/05/17 04:05:41;;;;;;;6.43;2.50;;;10.60;99.90;9.90;100377;;;;578227;247;24116;-79
2023/05/17 04:08:10;;;;;;;3.67;2.03;;;10.70;99.90;9.90;100384;;;;559148;252;24132;-79
2023/05/17 04:10:40;;;;;;;10.73;3.13;;;10.90;99.90;10.00;100358;;;;569972;248;24101;-76
2023/05/17 04:13:06;;;;;;;3.73;1.83;;;10.60;99.90;10.10;100343;;;;570520;248;24106;-77
2023/05/17 04:15:36;;;;;;;9.50;2.37;;;10.80;99.90;10.20;100362;;;;570598;248;24114;-73
2023/05/17 04:18:04;;;;;;;4.67;2.30;;;11.20;99.90;10.40;100373;;;;570134;248;24133;-80
2023/05/17 04:20:32;;;;;;;9.10;2.20;;;11.40;99.90;10.60;100376;;;;572830;248;24158;-78
2023/05/17 04:23:00;;;;;;;9.27;2.30;;;12.30;99.90;10.80;100372;;;;569635;248;24193;-80
2023/05/17 04:25:32;;;;;;;10.03;2.90;;;11.80;99.90;11.10;100364;;;;570021;248;24085;-74
2023/05/17 04:27:56;;;;;;;6.93;1.83;;;12.00;99.90;11.50;100375;;;;574861;248;24089;-77
2023/05/17 04:30:24;;;;;;;6.47;2.57;;;12.70;99.90;12.10;100388;;;;570312;248;24094;-73
2023/05/17 04:32:52;;;;;;;5.07;2.80;;;12.70;99.90;12.60;100382;;;;570158;248;24095;-76
2023/05/17 04:35:20;;;;;;;6.67;2.40;;;13.90;99.90;13.00;100390;;;;571490;247;24120;-75
2023/05/17 04:37:48;;;;;;;7.03;2.20;;;13.70;99.90;13.30;100397;;;;570637;247;24131;-77
2023/05/17 04:40:16;;;;;;;7.07;2.80;;;14.10;99.90;13.50;100397;;;;570405;247;24105;-75
2023/05/17 04:42:44;;;;;;;4.80;2.40;;;14.30;99.90;13.90;100385;;;;570321;248;24084;-78
2023/05/17 04:45:12;;;;;;;7.30;2.90;;;14.60;99.90;14.30;100389;;;;570124;248;24082;-75
2023/05/17 04:47:40;;;;;;;9.80;2.37;;;15.20;99.90;14.60;100394;;;;570131;248;24153;-74
2023/05/17 04:50:08;;;;;;;7.43;2.63;;;15.40;99.90;14.70;100401;;;;570228;248;24133;-72
2023/05/17 04:52:38;;;;;;;11.43;2.97;;;15.80;99.90;14.70;100397;;;;569905;248;24104;-72
2023/05/17 04:55:06;;;;;;;3.30;1.97;;;15.50;99.90;14.90;100398;;;;570359;248;24155;-73
2023/05/17 04:57:34;;;;;;;8.57;2.43;;;15.60;99.90;15.00;100404;;;;570259;248;24130;-73
2023/05/17 05:00:06;;;;;;;10.13;3.33;;;15.70;99.90;14.90;100392;;;;569931;248;24163;-73
2023/05/17 05:02:31;;;;;;;5.77;2.67;;;15.70;99.90;14.80;100391;;;;569573;248;24099;-73
2023/05/17 05:05:00;;;;;;;9.27;3.93;;;15.60;99.90;14.80;100392;;;;569757;248;24096;-74
2023/05/17 05:07:28;;;;;;;6.83;2.60;;;15.60;99.90;14.70;100398;;;;569827;248;24087;-77
2023/05/17 05:09:56;;;;;;;7.07;3.03;;;15.70;99.90;15.00;100400;;;;569550;248;24088;-74
2023/05/17 05:12:28;;;;;;;5.67;2.77;;;16.20;99.90;15.60;100410;;;;578353;248;24104;-74
2023/05/17 05:14:55;;;;;;;6.97;2.60;;;16.20;99.90;16.30;100404;;;;569359;248;24146;-75
2023/05/17 05:17:20;;;;;;;6.63;2.87;;;16.90;99.90;17.00;100404;;;;569723;248;24094;-74
2023/05/17 05:19:49;;;;;;;7.80;2.43;;;18.50;99.90;17.90;100417;;;;569592;248;24135;-75
2023/05/17 05:22:17;;;;;;;5.33;2.67;;;19.60;99.90;19.00;100415;;;;569546;248;24111;-75
2023/05/17 05:24:45;;;;;;;8.03;3.70;;;20.60;99.60;20.00;100425;;;;569882;248;23099;-74
2023/05/17 05:27:13;;;;;;;7.07;2.80;;;21.70;96.50;21.00;100429;;;;569839;248;24102;-75
2023/05/17 05:29:41;;;;;;;8.50;3.13;;;21.60;96.40;21.90;100437;;;;569690;248;24166;-74
2023/05/17 05:32:09;;;;;;;10.33;3.27;;;22.50;91.90;22.60;100431;;;;569603;248;23109;-75
2023/05/17 05:34:37;;;;;;;8.20;2.87;;;23.30;89.30;23.20;100431;;;;569470;248;24141;-73
2023/05/17 05:37:04;;;;;;;7.63;3.30;;;24.00;83.20;23.80;100436;;;;569508;248;24096;-74
2023/05/17 05:39:32;;;;;;;8.17;3.10;;;25.20;74.80;24.50;100438;;;;569299;248;23148;-74
2023/05/17 05:42:00;;;;;;;5.40;2.70;;;25.20;75.30;25.10;100438;;;;569663;248;24079;-76
2023/05/17 05:44:28;;;;;;;7.50;3.33;;;25.80;70.00;25.40;100446;;;;569516;248;23131;-76
2023/05/17 05:46:56;;;;;;;6.77;3.60;;;26.20;68.20;25.90;100445;;;;571395;247;23092;-75
2023/05/17 05:49:24;;;;;;;7.40;3.67;;;26.70;65.90;26.70;100444;;;;570575;247;23131;-78
2023/05/17 05:51:52;;;;;;;8.50;3.37;;;27.40;63.60;27.10;100459;;;;570230;247;23162;-75
2023/05/17 05:54:20;;;;;;;6.40;3.60;;;27.90;59.50;27.20;100456;;;;570350;248;23097;-75
2023/05/17 05:56:50;;;;;;;4.60;2.83;;;28.00;58.00;27.50;100466;;;;570502;248;23115;-75
2023/05/17 05:59:16;;;;;;;5.93;2.72;;;28.30;58.60;28.20;100470;;;;570110;248;24154;-75
2023/05/17 06:01:44;;;;;;;6.22;2.50;;;28.90;56.80;28.70;100475;;;;570011;248;23156;-73
2023/05/17 06:04:12;;;;;;;8.50;3.62;;;29.40;55.30;29.10;100472;;;;569785;248;23141;-75
2023/05/17 06:06:40;;;;;;;6.75;2.62;;;29.80;54.00;29.60;100482;;;;569864;248;23109;-75
2023/05/17 06:09:10;;;;;;;5.15;2.80;;;30.30;53.30;30.00;100485;;;;569743;248;23098;-75
2023/05/17 06:11:35;;;;;;;9.82;3.10;;;30.80;51.50;30.20;100487;;;;569751;248;23121;-76
2023/05/17 06:14:03;;;;;;;10.43;3.30;;;30.80;50.60;30.30;100489;;;;569905;248;23141;-79
2023/05/17 06:16:31;;;;;;;5.50;2.60;;;31.10;49.90;30.60;100493;;;;570126;248;24098;-74
2023/05/17 06:19:00;;;;;;;8.15;2.75;;;31.80;48.70;31.10;100486;;;;569861;248;23099;-77
2023/05/17 06:21:28;;;;;;;8.30;2.97;;;32.00;47.20;31.30;100490;;;;569601;248;23105;-76
2023/05/17 06:23:57;;;;;;;4.85;2.85;;;32.30;47.00;31.50;100503;;;;569609;248;23099;-78
2023/05/17 06:26:26;;;;;;;7.68;3.03;;;32.20;46.90;31.90;100496;;;;569958;248;23130;-76
2023/05/17 06:28:53;;;;;;;4.00;3.33;;;32.50;46.40;32.30;100501;;;;569964;248;23140;-75
2023/05/17 06:31:22;;;;;;;5.62;2.85;;;33.20;43.90;32.70;100501;;;;569904;248;23106;-75
2023/05/17 06:33:50;;;;;;;5.90;2.80;;;33.40;43.10;32.70;100497;;;;569876;248;23101;-77
2023/05/17 06:36:19;;;;;;;4.53;3.25;;;33.40;43.00;32.70;100501;;;;578603;248;23108;-75
2023/05/17 06:38:47;;;;;;;6.62;2.62;;;33.30;42.90;33.10;100491;;;;569870;248;23145;-76
2023/05/17 06:41:15;;;;;;;7.35;3.22;;;33.60;42.30;33.20;100504;;;;569812;248;24125;-77
2023/05/17 06:43:43;;;;;;;4.93;2.62;;;33.80;42.20;33.60;100508;;;;569548;248;23086;-79
2023/05/17 06:46:11;;;;;;;11.25;3.55;;;34.20;41.70;34.30;100519;;;;569713;248;23112;-74
2023/05/17 06:48:39;;;;;;;9.07;2.97;;;34.70;41.20;34.60;100526;;;;569455;248;23098;-74
2023/05/17 06:51:07;;;;;;;6.60;3.00;;;35.10;40.80;34.60;100524;;;;569547;248;23122;-76
2023/05/17 06:53:34;;;;;;;8.30;3.03;;;35.20;40.30;35.20;100525;;;;569664;248;23129;-74
2023/05/17 06:56:02;;;;;;;6.78;3.30;;;35.60;39.90;35.80;100530;;;;578235;248;23127;-78
2023/05/17 06:58:31;;;;;;;10.95;5.25;;;36.20;39.30;36.40;100535;;;;571179;247;23119;-75
2023/05/17 07:01:02;;;;;;;7.57;3.50;;;36.10;38.30;35.30;100535;;;;570668;247;24163;-77
2023/05/17 07:03:30;;;;;;;7.62;2.97;;;36.10;38.20;35.10;100543;;;;570580;247;23159;-77
2023/05/17 07:05:58;;;;;;;3.50;2.42;;;35.70;39.30;36.10;100552;;;;570332;248;23127;-79
2023/05/17 07:08:26;;;;;;;6.95;3.03;;;36.30;39.40;36.60;100557;;;;570001;248;23097;-76
2023/05/17 07:10:54;;;;;;;6.87;3.12;;;37.00;38.30;35.40;100560;;;;570223;248;23103;-80
2023/05/17 07:13:22;;;;;;;6.22;2.95;;;36.40;38.20;35.20;100554;;;;570143;248;23117;-79
2023/05/17 07:15:49;;;;;;;9.50;3.33;;;36.00;38.90;35.50;100562;;;;570193;248;23097;-75
2023/05/17 07:18:17;;;;;;;7.72;3.12;;;36.00;38.70;35.90;100562;;;;569992;248;23128;-78
2023/05/17 07:20:45;;;;;;;7.00;3.10;;;36.20;38.60;36.70;100573;;;;569971;248;23136;-79
2023/05/17 07:23:13;;;;;;;7.93;2.42;;;36.80;39.10;36.90;100581;;;;570628;248;24137;-77
2023/05/17 07:25:41;;;;;;;8.20;3.28;;;37.40;37.60;34.60;100590;;;;570314;248;23115;-76
2023/05/17 07:28:09;;;;;;;7.68;3.55;;;36.10;38.10;31.40;100592;;;;570746;248;23123;-76
2023/05/17 07:30:38;;;;;;;4.93;2.40;;;30.70;41.80;28.20;100589;;;;570902;248;23099;-78
2023/05/17 07:33:06;;;;;;;7.57;3.30;;;27.90;45.30;25.90;100591;;;;570210;248;23104;-76
2023/05/17 07:35:34;;;;;;;5.50;2.55;;;27.90;45.30;24.40;100590;;;;570490;248;23100;-74
2023/05/17 07:38:02;;;;;;;8.27;3.03;;;26.10;47.90;23.30;100586;;;;570879;248;24107;-73
2023/05/17 07:40:30;;;;;;;7.73;3.13;;;24.70;50.50;22.50;100588;;;;570755;248;23113;-76
2023/05/17 07:42:58;;;;;;;5.40;2.63;;;22.60;54.00;21.90;100583;;;;570198;248;23109;-75
2023/05/17 07:45:26;;;;;;;3.57;2.57;;;22.60;54.50;21.20;100590;;;;569900;248;24115;-75
2023/05/17 07:47:54;;;;;;;9.30;3.10;;;22.00;56.10;20.70;100590;;;;569803;248;24129;-79
2023/05/17 07:50:23;;;;;;;8.40;2.47;;;20.90;58.70;20.30;100589;;;;569595;248;24132;-77
2023/05/17 07:52:52;;;;;;;4.67;2.60;;;20.40;59.60;19.90;100592;;;;578342;248;24110;-78
2023/05/17 07:55:20;;;;;;;10.30;2.97;;;20.40;59.60;19.60;100604;;;;569550;248;24098;-78
2023/05/17 07:57:47;;;;;;;9.93;2.63;;;20.10;61.10;19.20;100603;;;;569881;248;24115;-79
2023/05/17 08:00:19;;;;;;;10.67;2.67;;;19.10;62.60;18.60;100605;;;;569601;248;24092;-74
2023/05/17 08:02:47;;;;;;;10.13;3.00;;;18.60;64.80;18.10;100599;;;;569293;248;23117;-76
2023/05/17 08:05:13;;;;;;;7.27;3.00;;;18.10;66.50;17.60;100616;;;;569434;248;24093;-75
2023/05/17 08:07:41;;;;;;;8.73;3.40;;;17.70;67.60;17.10;100616;;;;569580;246;24136;-76
2023/05/17 08:10:13;;;;;;;9.10;2.90;;;17.30;68.40;16.70;100614;;;;571082;247;24103;-80
2023/05/17 08:12:37;;;;;;;5.37;1.93;;;17.00;70.20;16.60;100624;;;;570190;247;24115;-78
2023/05/17 08:15:05;;;;;;;7.27;2.50;;;17.40;70.70;16.80;100615;;;;570337;247;24125;-77
2023/05/17 08:17:33;;;;;;;7.53;2.70;;;17.30;71.20;17.00;100624;;;;570221;248;24083;-75
2023/05/17 08:20:01;;;;;;;4.83;2.50;;;17.40;71.60;17.10;100627;;;;570017;248;24084;-79
2023/05/17 08:22:29;;;;;;;4.13;2.40;;;17.60;69.40;17.20;100623;;;;568049;248;24114;-78
2023/05/17 08:24:57;;;;;;;6.43;2.43;;;17.50;69.30;17.10;100628;;;;570016;248;24114;-77
2023/05/17 08:27:25;;;;;;;7.73;3.00;;;17.90;69.90;17.20;100619;;;;570274;248;24121;-78
2023/05/17 08:29:54;;;;;;;7.50;3.10;;;18.10;68.90;17.40;100625;;;;570173;248;24130;-78
2023/05/17 08:32:22;;;;;;;7.50;3.10;;;18.10;67.50;17.40;100621;;;;570118;248;25148;-79
2023/05/17 08:34:49;;;;;;;7.33;2.40;;;17.90;67.80;17.40;100624;;;;570204;248;24131;-77
2023/05/17 08:37:20;;;;;;;8.40;2.47;;;18.10;67.00;17.80;100615;;;;578870;248;24195;-77
2023/05/17 08:39:48;;;;;;;11.33;2.70;;;18.80;66.50;18.40;100617;;;;570212;248;24144;-78
2023/05/17 08:42:16;;;;;;;8.47;2.80;;;19.00;65.30;18.60;100620;;;;570227;248;24113;-75
2023/05/17 08:44:44;;;;;;;12.30;3.80;;;19.10;65.20;18.50;100624;;;;569265;248;24130;-77
2023/05/17 08:47:16;;;;;;;10.87;2.70;;;18.80;64.90;18.10;100630;;;;578184;248;24092;-78
2023/05/17 08:49:41;;;;;;;4.97;2.20;;;18.50;65.80;17.80;100630;;;;569586;248;24140;-78
2023/05/17 08:52:12;;;;;;;10.33;3.07;;;18.50;66.50;17.60;100641;;;;569623;248;24110;-74
2023/05/17 08:54:36;;;;;;;8.27;2.72;;;18.00;68.10;17.40;100639;;;;564241;248;35477;-75
2023/05/17 08:57:05;;;;;;;8.60;3.30;;;17.90;69.20;17.30;100639;;;;569597;248;24138;-75
2023/05/17 08:59:34;;;;;;;4.03;2.47;;;18.10;69.70;17.30;100653;;;;578592;248;24090;-72
2023/05/17 09:02:04;;;;;;;4.50;2.27;;;17.80;69.90;17.30;100648;;;;578502;248;24189;-75
2023/05/17 09:04:32;;;;;;;4.97;2.33;;;17.70;70.20;17.10;100656;;;;569862;248;24123;-76
2023/05/17 09:06:56;;;;;;;7.43;2.77;;;17.50;70.20;17.00;100655;;;;569515;248;24138;-73
2023/05/17 09:09:24;;;;;;;5.63;2.70;;;17.50;70.80;16.90;100658;;;;569912;248;24140;-73
2023/05/17 09:11:53;;;;;;;8.03;2.90;;;17.30;71.80;16.70;100655;;;;569799;248;24090;-74
2023/05/17 09:14:20;;;;;;;8.20;2.87;;;17.50;72.70;16.80;100660;;;;569917;248;24139;-74
2023/05/17 09:16:48;;;;;;;7.70;3.10;;;17.70;71.40;17.30;100651;;;;569587;248;24110;-73
2023/05/17 09:19:20;;;;;;;5.90;2.23;;;17.80;69.70;17.50;100654;;;;569087;246;24116;-73
2023/05/17 09:21:47;;;;;;;9.10;3.13;;;18.10;69.10;17.60;100655;;;;579360;247;24086;-74
2023/05/17 09:24:15;;;;;;;7.87;2.50;;;18.20;69.60;18.40;100650;;;;570504;247;23148;-75
2023/05/17 09:26:43;;;;;;;7.67;2.60;;;18.70;69.90;20.40;100646;;;;570253;247;24138;-74
2023/05/17 09:29:14;;;;;;;8.18;3.25;;;22.10;61.90;22.40;100648;;;;565556;248;35355;-74
2023/05/17 09:31:42;;;;;;;4.20;2.80;;;22.50;61.70;22.90;100664;;;;570379;248;24114;-77
2023/05/17 09:34:10;;;;;;;5.47;2.70;;;23.50;58.40;23.40;100667;;;;573673;248;24087;-75
2023/05/17 09:36:37;;;;;;;6.40;2.10;;;24.10;56.40;24.50;100667;;;;570452;248;23099;-77
2023/05/17 09:39:06;;;;;;;8.97;2.70;;;25.10;54.90;25.90;100666;;;;573275;248;23135;-76
2023/05/17 09:41:33;;;;;;;8.10;3.10;;;26.50;52.50;27.50;100664;;;;570024;248;24156;-73
2023/05/17 09:44:01;;;;;;;8.98;2.75;;;28.10;49.50;28.50;100670;;;;569409;248;24126;-74
2023/05/17 09:46:33;;;;;;;8.27;3.30;;;30.90;46.70;30.20;100666;;;;569692;248;23146;-74
2023/05/17 09:49:05;;;;;;;14.20;3.87;;;32.50;44.30;31.80;100689;;;;573016;248;23172;-76
2023/05/17 09:51:36;;;;;;;9.85;3.55;;;32.40;44.00;33.00;100689;;;;569548;248;23109;-74
2023/05/17 09:54:05;;;;;;;5.70;2.47;;;33.90;41.90;32.90;100689;;;;569717;248;23104;-76
2023/05/17 09:56:34;;;;;;;5.50;2.53;;;34.40;39.40;32.70;100688;;;;578089;248;23124;-73
2023/05/17 09:59:05;;;;;;;8.20;3.03;;;34.20;38.40;32.70;100691;;;;569039;248;23186;-74
2023/05/17 10:01:30;;;;;;;9.70;3.85;;;34.10;39.40;33.10;100699;;;;569215;248;23149;-74
2023/05/17 10:04:02;;;;;;;5.47;2.70;;;34.40;38.60;32.40;100687;;;;577944;248;23153;-75
2023/05/17 10:06:30;;;;;;;8.93;2.55;;;34.00;38.30;31.10;100699;;;;569422;248;23141;-78
2023/05/17 10:09:00;;;;;;;8.00;2.58;;;32.80;39.30;31.00;100702;;;;577770;248;23136;-76
2023/05/17 10:11:33;;;;;;;7.03;2.60;;;32.40;39.80;31.00;100708;;;;577750;248;23127;-76
2023/05/17 10:14:10;;;;;;;6.18;2.37;;;32.20;39.50;31.00;100703;;;;578069;248;23152;-76
2023/05/17 10:16:39;;;;;;;5.62;2.28;;;32.50;38.60;31.50;100700;;;;569548;248;23100;-78
2023/05/17 10:19:10;;;;;;;6.60;2.72;;;32.50;38.50;31.80;100711;;;;569255;248;23102;-74
2023/05/17 10:21:35;;;;;;;4.60;2.33;;;32.80;38.80;31.40;100713;;;;568936;248;23109;-77
2023/05/17 10:24:02;;;;;;;9.82;2.70;;;32.70;37.90;31.10;100709;;;;569379;248;24183;-77
2023/05/17 10:26:30;;;;;;;5.40;2.37;;;32.30;38.50;31.00;100709;;;;569556;248;23140;-75
2023/05/17 10:29:01;;;;;;;5.37;2.30;;;32.20;38.80;30.90;100709;;;;578842;248;23171;-77
2023/05/17 10:31:29;;;;;;;11.12;3.75;;;32.10;39.20;30.10;100713;;;;570465;247;23105;-75
2023/05/17 10:33:57;;;;;;;7.45;2.75;;;31.60;38.30;29.00;100705;;;;571071;247;23159;-77
2023/05/17 10:36:25;;;;;;;6.40;2.90;;;30.50;40.10;28.30;100705;;;;570690;247;23122;-79
2023/05/17 10:38:55;;;;;;;9.52;3.00;;;29.60;40.70;27.50;100697;;;;570479;247;23092;-75
2023/05/17 10:41:21;;;;;;;9.45;2.95;;;28.10;41.90;27.10;100701;;;;570319;248;23195;-74
2023/05/17 10:43:51;;;;;;;9.00;3.00;;;27.50;43.00;26.60;100700;;;;578451;248;24218;-74
2023/05/17 10:46:19;;;;;;;5.57;2.30;;;26.60;42.90;25.70;100699;;;;570412;248;23115;-77
2023/05/17 10:48:45;;;;;;;6.17;2.03;;;25.70;44.30;24.80;100693;;;;569739;248;23189;-72
2023/05/17 10:51:17;;;;;;;11.07;3.00;;;24.80;45.40;24.20;100705;;;;570044;248;23115;-74
2023/05/17 10:54:04;;;;;;;10.93;3.03;;;24.10;46.50;23.40;100707;;;;569732;248;24133;-74
2023/05/17 10:56:32;;;;;;;7.10;2.27;;;23.30;47.60;22.60;100706;;;;568453;248;23120;-78
2023/05/17 10:59:20;;;;;;;7.70;2.57;;;22.80;49.70;22.30;100706;;;;569535;248;24115;-77
2023/05/17 11:01:59;;;;;;;10.07;3.57;;;22.70;49.80;22.10;100707;;;;569287;248;24139;-79
2023/05/17 11:04:38;;;;;;;6.77;2.30;;;22.30;50.10;21.90;100707;;;;569938;248;24206;-79
2023/05/17 11:07:23;;;;;;;11.53;2.60;;;22.00;50.40;21.60;100718;;;;569441;248;24134;-78
2023/05/17 11:09:49;;;;;;;10.93;2.80;;;21.80;49.70;21.40;100708;;;;577637;248;25175;-77
2023/05/17 11:12:17;;;;;;;9.93;3.30;;;21.50;50.70;21.20;100715;;;;569285;248;24191;-76
2023/05/17 11:14:45;;;;;;;6.40;2.17;;;21.60;50.80;21.20;100723;;;;568263;248;24092;-74
2023/05/17 11:17:16;;;;;;;4.47;2.27;;;21.50;50.80;21.10;100725;;;;569230;248;24137;-77
2023/05/17 11:20:08;;;;;;;7.20;1.83;;;21.40;51.50;20.90;100722;;;;569347;248;24182;-79
2023/05/17 11:22:46;;;;;;;8.23;2.23;;;21.40;52.00;20.90;100730;;;;569222;248;24088;-75